sensor_id;sensor_type;location;lat;lon;timestamp;temperature;humidity
6106;DHT22;3083;51.508;7.966;2023-04-25T00:01:20;4.70;99.90
6106;DHT22;3083;51.508;7.966;2023-04-25T00:03:48;4.70;99.90
6106;DHT22;3083;51.508;7.966;2023-04-25T00:06:15;4.70;99.90
6106;DHT22;3083;51.508;7.966;2023-04-25T00:08:44;4.70;99.90
6106;DHT22;3083;51.508;7.966;2023-04-25T00:11:11;4.70;99.90
6106;DHT22;3083;51.508;7.966;2023-04-25T00:13:38;4.70;99.90
6106;DHT22;3083;51.508;7.966;2023-04-25T00:16:07;4.60;99.90
6106;DHT22;3083;51.508;7.966;2023-04-25T00:18:34;4.60;99.90
6106;DHT22;3083;51.508;7.966;2023-04-25T00:21:01;4.60;99.90
6106;DHT22;3083;51.508;7.966;2023-04-25T00:23:31;4.60;99.90
6106;DHT22;3083;51.508;7.966;2023-04-25T00:25:59;4.60;99.90
6106;DHT22;3083;51.508;7.966;2023-04-25T00:28:26;4.60;99.90
6106;DHT22;3083;51.508;7.966;2023-04-25T00:30:53;4.60;99.90
6106;DHT22;3083;51.508;7.966;2023-04-25T00:33:20;4.60;99.90
6106;DHT22;3083;51.508;7.966;2023-04-25T00:35:47;4.60;99.90
6106;DHT22;3083;51.508;7.966;2023-04-25T00:38:14;4.60;99.90
6106;DHT22;3083;51.508;7.966;2023-04-25T00:40:41;4.60;99.90
6106;DHT22;3083;51.508;7.966;2023-04-25T00:43:10;4.60;99.90
6106;DHT22;3083;51.508;7.966;2023-04-25T00:45:38;4.70;99.90
6106;DHT22;3083;51.508;7.966;2023-04-25T00:48:06;4.70;99.90
6106;DHT22;3083;51.508;7.966;2023-04-25T00:50:33;4.70;99.90
6106;DHT22;3083;51.508;7.966;2023-04-25T00:53:00;4.80;99.90
6106;DHT22;3083;51.508;7.966;2023-04-25T00:55:28;4.90;99.90
6106;DHT22;3083;51.508;7.966;2023-04-25T00:57:57;5.00;99.90
6106;DHT22;3083;51.508;7.966;2023-04-25T01:00:25;5.00;99.90
6106;DHT22;3083;51.508;7.966;2023-04-25T01:02:52;5.10;99.90
6106;DHT22;3083;51.508;7.966;2023-04-25T01:05:19;5.10;99.90
6106;DHT22;3083;51.508;7.966;2023-04-25T01:07:46;5.20;99.90
6106;DHT22;3083;51.508;7.966;2023-04-25T01:10:13;5.30;99.90
6106;DHT22;3083;51.508;7.966;2023-04-25T01:12:40;5.30;99.90
6106;DHT22;3083;51.508;7.966;2023-04-25T01:15:08;5.40;99.90
6106;DHT22;3083;51.508;7.966;2023-04-25T01:17:36;5.40;99.90
6106;DHT22;3083;51.508;7.966;2023-04-25T01:20:04;5.40;99.90
6106;DHT22;3083;51.508;7.966;2023-04-25T01:22:34;5.50;99.90
6106;DHT22;3083;51.508;7.966;2023-04-25T01:25:02;5.50;99.90
6106;DHT22;3083;51.508;7.966;2023-04-25T01:27:29;5.60;99.90
6106;DHT22;3083;51.508;7.966;2023-04-25T01:29:56;5.60;99.90
6106;DHT22;3083;51.508;7.966;2023-04-25T01:32:23;5.60;99.90
6106;DHT22;3083;51.508;7.966;2023-04-25T01:34:50;5.60;99.90
6106;DHT22;3083;51.508;7.966;2023-04-25T01:37:17;5.60;99.90
6106;DHT22;3083;51.508;7.966;2023-04-25T01:39:46;5.70;99.90
6106;DHT22;3083;51.508;7.966;2023-04-25T01:42:14;5.70;99.90
6106;DHT22;3083;51.508;7.966;2023-04-25T01:44:41;5.70;99.90
6106;DHT22;3083;51.508;7.966;2023-04-25T01:47:08;5.70;99.90
6106;DHT22;3083;51.508;7.966;2023-04-25T01:49:35;5.80;99.90
6106;DHT22;3083;51.508;7.966;2023-04-25T01:52:02;5.80;99.90
6106;DHT22;3083;51.508;7.966;2023-04-25T01:54:29;5.80;99.90
6106;DHT22;3083;51.508;7.966;2023-04-25T01:56:58;5.80;99.90
6106;DHT22;3083;51.508;7.966;2023-04-25T01:59:26;5.80;99.90
6106;DHT22;3083;51.508;7.966;2023-04-25T02:01:52;5.90;99.90
6106;DHT22;3083;51.508;7.966;2023-04-25T02:04:19;5.90;99.90
6106;DHT22;3083;51.508;7.966;2023-04-25T02:06:46;5.90;99.90
6106;DHT22;3083;51.508;7.966;2023-04-25T02:09:13;5.90;99.90
6106;DHT22;3083;51.508;7.966;2023-04-25T02:11:40;5.90;99.90
6106;DHT22;3083;51.508;7.966;2023-04-25T02:14:08;5.90;99.90
6106;DHT22;3083;51.508;7.966;2023-04-25T02:16:35;5.90;99.90
6106;DHT22;3083;51.508;7.966;2023-04-25T02:19:02;5.90;99.90
6106;DHT22;3083;51.508;7.966;2023-04-25T02:21:29;5.90;99.90
6106;DHT22;3083;51.508;7.966;2023-04-25T02:23:57;5.90;99.90
6106;DHT22;3083;51.508;7.966;2023-04-25T02:26:24;5.90;99.90
6106;DHT22;3083;51.508;7.966;2023-04-25T02:28:51;5.90;99.90
6106;DHT22;3083;51.508;7.966;2023-04-25T02:31:19;5.90;99.90
6106;DHT22;3083;51.508;7.966;2023-04-25T02:33:46;5.90;99.90
6106;DHT22;3083;51.508;7.966;2023-04-25T02:36:13;5.80;99.90
6106;DHT22;3083;51.508;7.966;2023-04-25T02:38:40;5.90;99.90
6106;DHT22;3083;51.508;7.966;2023-04-25T02:41:07;5.80;99.90
6106;DHT22;3083;51.508;7.966;2023-04-25T02:43:34;5.80;99.90
6106;DHT22;3083;51.508;7.966;2023-04-25T02:46:01;5.80;99.90
6106;DHT22;3083;51.508;7.966;2023-04-25T02:48:29;5.80;99.90
6106;DHT22;3083;51.508;7.966;2023-04-25T02:50:56;5.80;99.90
6106;DHT22;3083;51.508;7.966;2023-04-25T02:53:23;5.80;99.90
6106;DHT22;3083;51.508;7.966;2023-04-25T02:55:49;5.80;99.90
6106;DHT22;3083;51.508;7.966;2023-04-25T02:58:18;5.80;99.90
6106;DHT22;3083;51.508;7.966;2023-04-25T03:00:45;5.80;99.90
6106;DHT22;3083;51.508;7.966;2023-04-25T03:03:12;5.80;99.90
6106;DHT22;3083;51.508;7.966;2023-04-25T03:05:40;5.80;99.90
6106;DHT22;3083;51.508;7.966;2023-04-25T03:08:07;5.80;99.90
6106;DHT22;3083;51.508;7.966;2023-04-25T03:10:34;5.80;99.90
6106;DHT22;3083;51.508;7.966;2023-04-25T03:13:01;5.80;99.90
6106;DHT22;3083;51.508;7.966;2023-04-25T03:15:28;5.80;99.90
6106;DHT22;3083;51.508;7.966;2023-04-25T03:17:54;5.80;99.90
6106;DHT22;3083;51.508;7.966;2023-04-25T03:20:21;5.80;99.90
6106;DHT22;3083;51.508;7.966;2023-04-25T03:22:50;5.80;99.90
6106;DHT22;3083;51.508;7.966;2023-04-25T03:25:17;5.80;99.90
6106;DHT22;3083;51.508;7.966;2023-04-25T03:27:44;5.80;99.90
6106;DHT22;3083;51.508;7.966;2023-04-25T03:30:11;5.80;99.90
6106;DHT22;3083;51.508;7.966;2023-04-25T03:32:38;5.80;99.90
6106;DHT22;3083;51.508;7.966;2023-04-25T03:35:05;5.90;99.90
6106;DHT22;3083;51.508;7.966;2023-04-25T03:37:32;5.80;99.90
6106;DHT22;3083;51.508;7.966;2023-04-25T03:40:00;5.80;99.90
6106;DHT22;3083;51.508;7.966;2023-04-25T03:42:28;5.80;99.90
6106;DHT22;3083;51.508;7.966;2023-04-25T03:44:55;5.80;99.90
6106;DHT22;3083;51.508;7.966;2023-04-25T03:47:21;5.80;99.90
6106;DHT22;3083;51.508;7.966;2023-04-25T03:49:48;5.80;99.90
6106;DHT22;3083;51.508;7.966;2023-04-25T03:52:17;5.80;99.90
6106;DHT22;3083;51.508;7.966;2023-04-25T03:54:44;5.80;99.90
6106;DHT22;3083;51.508;7.966;2023-04-25T03:57:12;5.80;99.90
6106;DHT22;3083;51.508;7.966;2023-04-25T03:59:39;5.80;99.90
6106;DHT22;3083;51.508;7.966;2023-04-25T04:02:06;5.80;99.90
6106;DHT22;3083;51.508;7.966;2023-04-25T04:04:33;5.80;99.90
6106;DHT22;3083;51.508;7.966;2023-04-25T04:07:00;5.80;99.90
6106;DHT22;3083;51.508;7.966;2023-04-25T04:09:26;5.80;99.90
6106;DHT22;3083;51.508;7.966;2023-04-25T04:11:54;5.80;99.90
6106;DHT22;3083;51.508;7.966;2023-04-25T04:14:22;5.70;99.90
6106;DHT22;3083;51.508;7.966;2023-04-25T04:16:50;5.70;99.90
6106;DHT22;3083;51.508;7.966;2023-04-25T04:19:17;5.70;99.90
6106;DHT22;3083;51.508;7.966;2023-04-25T04:21:44;5.70;99.90
6106;DHT22;3083;51.508;7.966;2023-04-25T04:24:11;5.70;99.90
6106;DHT22;3083;51.508;7.966;2023-04-25T04:26:38;5.70;99.90
6106;DHT22;3083;51.508;7.966;2023-04-25T04:29:05;5.70;99.90
6106;DHT22;3083;51.508;7.966;2023-04-25T04:31:33;5.60;99.90
6106;DHT22;3083;51.508;7.966;2023-04-25T04:34:01;5.70;99.90
6106;DHT22;3083;51.508;7.966;2023-04-25T04:36:29;5.70;99.90
6106;DHT22;3083;51.508;7.966;2023-04-25T04:38:56;5.70;99.90
6106;DHT22;3083;51.508;7.966;2023-04-25T04:41:22;5.70;99.90
6106;DHT22;3083;51.508;7.966;2023-04-25T04:43:50;5.70;99.90
6106;DHT22;3083;51.508;7.966;2023-04-25T04:46:18;5.80;99.90
6106;DHT22;3083;51.508;7.966;2023-04-25T04:48:46;5.70;99.90
6106;DHT22;3083;51.508;7.966;2023-04-25T04:51:13;5.80;99.90
6106;DHT22;3083;51.508;7.966;2023-04-25T04:53:40;5.80;99.90
6106;DHT22;3083;51.508;7.966;2023-04-25T04:56:07;5.80;99.90
6106;DHT22;3083;51.508;7.966;2023-04-25T04:58:34;5.80;99.90
6106;DHT22;3083;51.508;7.966;2023-04-25T05:01:02;5.70;99.90
6106;DHT22;3083;51.508;7.966;2023-04-25T05:03:29;5.80;99.90
6106;DHT22;3083;51.508;7.966;2023-04-25T05:05:57;5.80;99.90
6106;DHT22;3083;51.508;7.966;2023-04-25T05:08:24;5.80;99.90
6106;DHT22;3083;51.508;7.966;2023-04-25T05:10:51;5.80;99.90
6106;DHT22;3083;51.508;7.966;2023-04-25T05:13:18;5.80;99.90
6106;DHT22;3083;51.508;7.966;2023-04-25T05:15:44;5.80;99.90
6106;DHT22;3083;51.508;7.966;2023-04-25T05:18:12;5.80;99.90
6106;DHT22;3083;51.508;7.966;2023-04-25T05:20:39;5.80;99.90
6106;DHT22;3083;51.508;7.966;2023-04-25T05:23:07;5.80;99.90
6106;DHT22;3083;51.508;7.966;2023-04-25T05:25:34;5.80;99.90
6106;DHT22;3083;51.508;7.966;2023-04-25T05:28:01;5.80;99.90
6106;DHT22;3083;51.508;7.966;2023-04-25T05:30:27;5.90;99.90
6106;DHT22;3083;51.508;7.966;2023-04-25T05:32:54;5.90;99.90
6106;DHT22;3083;51.508;7.966;2023-04-25T05:35:21;5.90;99.90
6106;DHT22;3083;51.508;7.966;2023-04-25T05:37:48;6.00;99.90
6106;DHT22;3083;51.508;7.966;2023-04-25T05:40:16;6.00;99.90
6106;DHT22;3083;51.508;7.966;2023-04-25T05:42:43;6.10;99.90
6106;DHT22;3083;51.508;7.966;2023-04-25T05:45:10;6.10;99.90
6106;DHT22;3083;51.508;7.966;2023-04-25T05:47:38;6.10;99.90
6106;DHT22;3083;51.508;7.966;2023-04-25T05:50:07;6.20;99.90
6106;DHT22;3083;51.508;7.966;2023-04-25T05:52:34;6.30;99.90
6106;DHT22;3083;51.508;7.966;2023-04-25T05:55:01;6.30;99.90
6106;DHT22;3083;51.508;7.966;2023-04-25T05:57:30;6.40;99.90
6106;DHT22;3083;51.508;7.966;2023-04-25T05:59:57;6.40;99.90
6106;DHT22;3083;51.508;7.966;2023-04-25T06:02:24;6.50;99.90
6106;DHT22;3083;51.508;7.966;2023-04-25T06:04:52;6.50;99.90
6106;DHT22;3083;51.508;7.966;2023-04-25T06:07:19;6.60;99.90
6106;DHT22;3083;51.508;7.966;2023-04-25T06:09:46;6.60;99.90
6106;DHT22;3083;51.508;7.966;2023-04-25T06:12:13;6.60;99.90
6106;DHT22;3083;51.508;7.966;2023-04-25T06:14:41;6.60;99.90
6106;DHT22;3083;51.508;7.966;2023-04-25T06:17:08;6.60;99.90
6106;DHT22;3083;51.508;7.966;2023-04-25T06:19:36;6.70;99.90
6106;DHT22;3083;51.508;7.966;2023-04-25T06:22:02;6.70;99.90
6106;DHT22;3083;51.508;7.966;2023-04-25T06:24:29;6.90;99.90
6106;DHT22;3083;51.508;7.966;2023-04-25T06:26:56;6.90;99.90
6106;DHT22;3083;51.508;7.966;2023-04-25T06:29:23;7.00;99.90
6106;DHT22;3083;51.508;7.966;2023-04-25T06:31:51;7.10;99.90
6106;DHT22;3083;51.508;7.966;2023-04-25T06:34:18;7.20;99.90
6106;DHT22;3083;51.508;7.966;2023-04-25T06:36:46;7.30;99.90
6106;DHT22;3083;51.508;7.966;2023-04-25T06:39:13;7.30;99.90
6106;DHT22;3083;51.508;7.966;2023-04-25T06:41:40;7.30;99.90
6106;DHT22;3083;51.508;7.966;2023-04-25T06:44:06;7.30;99.90
6106;DHT22;3083;51.508;7.966;2023-04-25T06:46:33;7.40;99.90
6106;DHT22;3083;51.508;7.966;2023-04-25T06:49:02;7.40;99.90
6106;DHT22;3083;51.508;7.966;2023-04-25T06:51:28;7.60;99.90
6106;DHT22;3083;51.508;7.966;2023-04-25T06:53:56;7.60;99.90
6106;DHT22;3083;51.508;7.966;2023-04-25T06:56:23;7.70;99.90
6106;DHT22;3083;51.508;7.966;2023-04-25T06:58:50;7.80;99.90
6106;DHT22;3083;51.508;7.966;2023-04-25T07:01:17;7.80;99.90
6106;DHT22;3083;51.508;7.966;2023-04-25T07:03:43;7.70;99.90
6106;DHT22;3083;51.508;7.966;2023-04-25T07:06:12;7.80;99.90
6106;DHT22;3083;51.508;7.966;2023-04-25T07:08:39;7.80;99.90
6106;DHT22;3083;51.508;7.966;2023-04-25T07:11:05;7.70;99.90
6106;DHT22;3083;51.508;7.966;2023-04-25T07:13:32;7.70;99.90
6106;DHT22;3083;51.508;7.966;2023-04-25T07:15:59;7.80;99.90
6106;DHT22;3083;51.508;7.966;2023-04-25T07:18:26;7.80;99.90
6106;DHT22;3083;51.508;7.966;2023-04-25T07:20:53;7.90;99.90
6106;DHT22;3083;51.508;7.966;2023-04-25T07:23:21;8.10;99.90
6106;DHT22;3083;51.508;7.966;2023-04-25T07:25:48;8.20;99.90
6106;DHT22;3083;51.508;7.966;2023-04-25T07:28:15;8.40;99.90
6106;DHT22;3083;51.508;7.966;2023-04-25T07:30:43;8.60;99.90
6106;DHT22;3083;51.508;7.966;2023-04-25T07:33:10;8.70;99.90
6106;DHT22;3083;51.508;7.966;2023-04-25T07:35:37;8.70;99.90
6106;DHT22;3083;51.508;7.966;2023-04-25T07:38:04;9.00;99.90
6106;DHT22;3083;51.508;7.966;2023-04-25T07:40:33;9.20;99.90
6106;DHT22;3083;51.508;7.966;2023-04-25T07:43:00;9.40;99.90
6106;DHT22;3083;51.508;7.966;2023-04-25T07:45:27;9.50;99.90
6106;DHT22;3083;51.508;7.966;2023-04-25T07:47:54;9.60;99.90
6106;DHT22;3083;51.508;7.966;2023-04-25T07:50:21;9.70;99.90
6106;DHT22;3083;51.508;7.966;2023-04-25T07:52:48;9.70;99.90
6106;DHT22;3083;51.508;7.966;2023-04-25T07:55:15;9.70;99.90
6106;DHT22;3083;51.508;7.966;2023-04-25T07:57:44;9.80;99.90
6106;DHT22;3083;51.508;7.966;2023-04-25T08:00:12;9.70;99.90
6106;DHT22;3083;51.508;7.966;2023-04-25T08:02:40;9.70;99.90
6106;DHT22;3083;51.508;7.966;2023-04-25T08:05:07;9.80;99.90
6106;DHT22;3083;51.508;7.966;2023-04-25T08:07:39;9.80;99.90
6106;DHT22;3083;51.508;7.966;2023-04-25T08:10:08;9.80;99.90
6106;DHT22;3083;51.508;7.966;2023-04-25T08:12:34;9.90;99.90
6106;DHT22;3083;51.508;7.966;2023-04-25T08:15:04;9.90;99.90
6106;DHT22;3083;51.508;7.966;2023-04-25T08:17:31;9.90;99.90
6106;DHT22;3083;51.508;7.966;2023-04-25T08:19:58;9.70;99.90
6106;DHT22;3083;51.508;7.966;2023-04-25T08:22:25;9.50;99.90
6106;DHT22;3083;51.508;7.966;2023-04-25T08:24:52;9.30;99.90
6106;DHT22;3083;51.508;7.966;2023-04-25T08:27:19;9.20;99.90
6106;DHT22;3083;51.508;7.966;2023-04-25T08:29:47;9.20;99.90
6106;DHT22;3083;51.508;7.966;2023-04-25T08:32:15;9.30;99.90
6106;DHT22;3083;51.508;7.966;2023-04-25T08:34:42;9.50;99.90
6106;DHT22;3083;51.508;7.966;2023-04-25T08:37:09;9.70;99.90
6106;DHT22;3083;51.508;7.966;2023-04-25T08:39:36;9.80;99.90
6106;DHT22;3083;51.508;7.966;2023-04-25T08:42:06;10.00;99.90
6106;DHT22;3083;51.508;7.966;2023-04-25T08:44:34;10.00;99.90
6106;DHT22;3083;51.508;7.966;2023-04-25T08:47:03;10.00;99.90
6106;DHT22;3083;51.508;7.966;2023-04-25T08:49:32;9.90;99.90
6106;DHT22;3083;51.508;7.966;2023-04-25T08:52:00;9.90;99.90
6106;DHT22;3083;51.508;7.966;2023-04-25T08:54:28;9.80;99.90
6106;DHT22;3083;51.508;7.966;2023-04-25T08:56:57;9.70;99.90
6106;DHT22;3083;51.508;7.966;2023-04-25T08:59:24;9.70;99.90
6106;DHT22;3083;51.508;7.966;2023-04-25T09:01:51;9.70;99.90
6106;DHT22;3083;51.508;7.966;2023-04-25T09:04:18;9.70;99.90
6106;DHT22;3083;51.508;7.966;2023-04-25T09:06:47;9.80;99.90
6106;DHT22;3083;51.508;7.966;2023-04-25T09:09:14;9.80;99.90
6106;DHT22;3083;51.508;7.966;2023-04-25T09:11:41;9.90;99.90
6106;DHT22;3083;51.508;7.966;2023-04-25T09:14:12;9.80;99.90
6106;DHT22;3083;51.508;7.966;2023-04-25T09:17:04;9.80;99.90
6106;DHT22;3083;51.508;7.966;2023-04-25T09:19:34;9.80;99.90
6106;DHT22;3083;51.508;7.966;2023-04-25T09:22:04;9.70;99.90
6106;DHT22;3083;51.508;7.966;2023-04-25T09:24:32;9.60;99.90
6106;DHT22;3083;51.508;7.966;2023-04-25T09:26:59;9.70;99.90
6106;DHT22;3083;51.508;7.966;2023-04-25T09:29:30;9.90;99.90
6106;DHT22;3083;51.508;7.966;2023-04-25T09:32:14;10.10;99.90
6106;DHT22;3083;51.508;7.966;2023-04-25T09:34:41;10.40;99.90
6106;DHT22;3083;51.508;7.966;2023-04-25T09:37:11;10.60;99.90
6106;DHT22;3083;51.508;7.966;2023-04-25T09:39:38;10.80;99.90
6106;DHT22;3083;51.508;7.966;2023-04-25T09:42:05;11.10;99.90
6106;DHT22;3083;51.508;7.966;2023-04-25T09:44:32;11.30;99.90
6106;DHT22;3083;51.508;7.966;2023-04-25T09:46:59;11.40;99.90
6106;DHT22;3083;51.508;7.966;2023-04-25T09:49:28;11.30;99.90
6106;DHT22;3083;51.508;7.966;2023-04-25T09:51:55;11.10;99.90
6106;DHT22;3083;51.508;7.966;2023-04-25T09:54:24;10.90;99.90
6106;DHT22;3083;51.508;7.966;2023-04-25T09:56:53;10.80;99.90
6106;DHT22;3083;51.508;7.966;2023-04-25T09:59:20;10.60;99.90
6106;DHT22;3083;51.508;7.966;2023-04-25T10:01:49;10.30;99.90
6106;DHT22;3083;51.508;7.966;2023-04-25T10:04:20;10.00;99.90
6106;DHT22;3083;51.508;7.966;2023-04-25T10:06:49;9.70;99.90
6106;DHT22;3083;51.508;7.966;2023-04-25T10:09:20;9.50;99.90
6106;DHT22;3083;51.508;7.966;2023-04-25T10:11:48;9.40;99.90
6106;DHT22;3083;51.508;7.966;2023-04-25T10:14:17;9.40;99.90
6106;DHT22;3083;51.508;7.966;2023-04-25T10:16:45;9.40;99.90
6106;DHT22;3083;51.508;7.966;2023-04-25T10:19:12;9.40;99.90
6106;DHT22;3083;51.508;7.966;2023-04-25T10:21:46;9.50;99.90
6106;DHT22;3083;51.508;7.966;2023-04-25T10:24:13;9.60;99.90
6106;DHT22;3083;51.508;7.966;2023-04-25T10:26:41;9.70;99.90
6106;DHT22;3083;51.508;7.966;2023-04-25T10:29:09;9.80;99.90
6106;DHT22;3083;51.508;7.966;2023-04-25T10:31:45;10.00;99.90
6106;DHT22;3083;51.508;7.966;2023-04-25T10:34:13;10.40;99.90
6106;DHT22;3083;51.508;7.966;2023-04-25T10:36:40;10.70;99.90
6106;DHT22;3083;51.508;7.966;2023-04-25T10:39:07;10.90;99.90
6106;DHT22;3083;51.508;7.966;2023-04-25T10:41:46;11.00;99.90
6106;DHT22;3083;51.508;7.966;2023-04-25T10:44:15;11.10;99.90
6106;DHT22;3083;51.508;7.966;2023-04-25T10:46:44;11.40;99.90
6106;DHT22;3083;51.508;7.966;2023-04-25T10:49:28;11.60;99.90
6106;DHT22;3083;51.508;7.966;2023-04-25T10:52:11;11.90;99.90
6106;DHT22;3083;51.508;7.966;2023-04-25T10:54:41;12.10;99.90
6106;DHT22;3083;51.508;7.966;2023-04-25T10:57:26;12.40;99.90
6106;DHT22;3083;51.508;7.966;2023-04-25T10:59:58;12.80;99.90
6106;DHT22;3083;51.508;7.966;2023-04-25T11:02:27;13.00;99.90
6106;DHT22;3083;51.508;7.966;2023-04-25T11:04:54;13.10;99.90
6106;DHT22;3083;51.508;7.966;2023-04-25T11:07:27;13.30;99.90
6106;DHT22;3083;51.508;7.966;2023-04-25T11:09:55;13.50;99.90
6106;DHT22;3083;51.508;7.966;2023-04-25T11:12:24;13.40;99.90
6106;DHT22;3083;51.508;7.966;2023-04-25T11:15:00;13.20;99.90
6106;DHT22;3083;51.508;7.966;2023-04-25T11:17:28;13.00;99.90
6106;DHT22;3083;51.508;7.966;2023-04-25T11:19:55;12.80;99.90
6106;DHT22;3083;51.508;7.966;2023-04-25T11:22:23;12.50;99.90
6106;DHT22;3083;51.508;7.966;2023-04-25T11:24:50;12.20;99.90
6106;DHT22;3083;51.508;7.966;2023-04-25T11:27:17;11.70;99.90
6106;DHT22;3083;51.508;7.966;2023-04-25T11:29:44;11.30;99.90
6106;DHT22;3083;51.508;7.966;2023-04-25T11:32:15;10.90;99.90
6106;DHT22;3083;51.508;7.966;2023-04-25T11:34:43;10.60;99.90
6106;DHT22;3083;51.508;7.966;2023-04-25T11:37:10;10.30;99.90
6106;DHT22;3083;51.508;7.966;2023-04-25T11:39:43;10.00;99.90
6106;DHT22;3083;51.508;7.966;2023-04-25T11:42:10;9.80;99.90
6106;DHT22;3083;51.508;7.966;2023-04-25T11:44:38;9.50;99.90
6106;DHT22;3083;51.508;7.966;2023-04-25T11:47:05;9.20;99.90
6106;DHT22;3083;51.508;7.966;2023-04-25T11:49:33;9.10;99.90
6106;DHT22;3083;51.508;7.966;2023-04-25T11:52:01;8.90;99.90
6106;DHT22;3083;51.508;7.966;2023-04-25T11:54:28;8.90;99.90
6106;DHT22;3083;51.508;7.966;2023-04-25T11:56:55;8.90;99.90
6106;DHT22;3083;51.508;7.966;2023-04-25T11:59:24;8.90;99.90
6106;DHT22;3083;51.508;7.966;2023-04-25T12:01:53;9.00;99.90
6106;DHT22;3083;51.508;7.966;2023-04-25T12:04:21;9.10;99.90
6106;DHT22;3083;51.508;7.966;2023-04-25T12:06:51;9.20;99.90
6106;DHT22;3083;51.508;7.966;2023-04-25T12:09:20;9.40;99.90
6106;DHT22;3083;51.508;7.966;2023-04-25T12:11:49;9.60;99.90
6106;DHT22;3083;51.508;7.966;2023-04-25T12:14:23;9.90;99.90
6106;DHT22;3083;51.508;7.966;2023-04-25T12:16:50;10.20;99.90
6106;DHT22;3083;51.508;7.966;2023-04-25T12:19:20;10.30;99.90
6106;DHT22;3083;51.508;7.966;2023-04-25T12:21:49;10.40;99.90
6106;DHT22;3083;51.508;7.966;2023-04-25T12:24:18;10.50;99.90
6106;DHT22;3083;51.508;7.966;2023-04-25T12:26:50;10.60;99.90
6106;DHT22;3083;51.508;7.966;2023-04-25T12:29:19;10.80;99.90
6106;DHT22;3083;51.508;7.966;2023-04-25T12:31:47;10.90;99.90
6106;DHT22;3083;51.508;7.966;2023-04-25T12:34:14;11.10;99.90
6106;DHT22;3083;51.508;7.966;2023-04-25T12:36:41;11.20;99.90
6106;DHT22;3083;51.508;7.966;2023-04-25T12:39:14;11.30;99.90
6106;DHT22;3083;51.508;7.966;2023-04-25T12:41:41;11.40;99.90
6106;DHT22;3083;51.508;7.966;2023-04-25T12:44:08;11.50;99.90
6106;DHT22;3083;51.508;7.966;2023-04-25T12:46:35;11.60;99.90
6106;DHT22;3083;51.508;7.966;2023-04-25T12:49:03;11.70;99.90
6106;DHT22;3083;51.508;7.966;2023-04-25T12:51:30;11.80;99.90
6106;DHT22;3083;51.508;7.966;2023-04-25T12:53:58;12.00;99.90
6106;DHT22;3083;51.508;7.966;2023-04-25T12:56:26;12.10;99.90
6106;DHT22;3083;51.508;7.966;2023-04-25T12:58:54;12.30;99.90
6106;DHT22;3083;51.508;7.966;2023-04-25T13:01:21;12.40;99.90
6106;DHT22;3083;51.508;7.966;2023-04-25T13:03:48;12.50;99.90
6106;DHT22;3083;51.508;7.966;2023-04-25T13:06:16;12.60;99.90
6106;DHT22;3083;51.508;7.966;2023-04-25T13:08:43;12.60;99.90
6106;DHT22;3083;51.508;7.966;2023-04-25T13:11:10;12.80;99.90
6106;DHT22;3083;51.508;7.966;2023-04-25T13:13:38;12.70;99.90
6106;DHT22;3083;51.508;7.966;2023-04-25T13:16:06;12.50;99.90
6106;DHT22;3083;51.508;7.966;2023-04-25T13:18:34;12.40;99.90
6106;DHT22;3083;51.508;7.966;2023-04-25T13:21:01;12.30;99.90
6106;DHT22;3083;51.508;7.966;2023-04-25T13:23:29;12.20;99.90
6106;DHT22;3083;51.508;7.966;2023-04-25T13:25:56;11.90;99.90
6106;DHT22;3083;51.508;7.966;2023-04-25T13:28:23;11.60;99.90
6106;DHT22;3083;51.508;7.966;2023-04-25T13:30:52;11.40;99.90
6106;DHT22;3083;51.508;7.966;2023-04-25T13:33:19;11.20;99.90
6106;DHT22;3083;51.508;7.966;2023-04-25T13:35:47;11.10;99.90
6106;DHT22;3083;51.508;7.966;2023-04-25T13:38:20;10.90;99.90
6106;DHT22;3083;51.508;7.966;2023-04-25T13:40:47;10.70;99.90
6106;DHT22;3083;51.508;7.966;2023-04-25T13:43:14;10.60;99.90
6106;DHT22;3083;51.508;7.966;2023-04-25T13:45:41;10.50;99.90
6106;DHT22;3083;51.508;7.966;2023-04-25T13:48:10;10.50;99.90
6106;DHT22;3083;51.508;7.966;2023-04-25T13:50:37;10.60;99.90
6106;DHT22;3083;51.508;7.966;2023-04-25T13:53:03;10.70;99.90
6106;DHT22;3083;51.508;7.966;2023-04-25T13:55:31;10.80;99.90
6106;DHT22;3083;51.508;7.966;2023-04-25T13:57:58;10.90;99.90
6106;DHT22;3083;51.508;7.966;2023-04-25T14:00:25;11.10;99.90
6106;DHT22;3083;51.508;7.966;2023-04-25T14:02:52;11.30;99.90
6106;DHT22;3083;51.508;7.966;2023-04-25T14:05:20;11.40;99.90
6106;DHT22;3083;51.508;7.966;2023-04-25T14:07:47;11.60;99.90
6106;DHT22;3083;51.508;7.966;2023-04-25T14:10:14;11.70;99.90
6106;DHT22;3083;51.508;7.966;2023-04-25T14:12:41;11.70;99.90
6106;DHT22;3083;51.508;7.966;2023-04-25T14:15:08;11.60;99.90
6106;DHT22;3083;51.508;7.966;2023-04-25T14:17:36;11.70;99.90
6106;DHT22;3083;51.508;7.966;2023-04-25T14:20:03;11.80;99.90
6106;DHT22;3083;51.508;7.966;2023-04-25T14:22:34;12.00;99.90
6106;DHT22;3083;51.508;7.966;2023-04-25T14:25:02;11.90;99.90
6106;DHT22;3083;51.508;7.966;2023-04-25T14:27:29;11.80;99.90
6106;DHT22;3083;51.508;7.966;2023-04-25T14:29:56;11.70;99.90
6106;DHT22;3083;51.508;7.966;2023-04-25T14:32:23;11.50;99.90
6106;DHT22;3083;51.508;7.966;2023-04-25T14:34:50;11.20;99.90
6106;DHT22;3083;51.508;7.966;2023-04-25T14:37:17;11.00;99.90
6106;DHT22;3083;51.508;7.966;2023-04-25T14:39:45;10.80;99.90
6106;DHT22;3083;51.508;7.966;2023-04-25T14:42:12;10.60;99.90
6106;DHT22;3083;51.508;7.966;2023-04-25T14:44:38;10.50;99.90
6106;DHT22;3083;51.508;7.966;2023-04-25T14:47:05;10.50;99.90
6106;DHT22;3083;51.508;7.966;2023-04-25T14:49:32;10.50;99.90
6106;DHT22;3083;51.508;7.966;2023-04-25T14:51:59;10.60;99.90
6106;DHT22;3083;51.508;7.966;2023-04-25T14:54:26;10.60;99.90
6106;DHT22;3083;51.508;7.966;2023-04-25T14:56:54;10.60;99.90
6106;DHT22;3083;51.508;7.966;2023-04-25T14:59:22;10.60;99.90
6106;DHT22;3083;51.508;7.966;2023-04-25T15:01:50;10.50;99.90
6106;DHT22;3083;51.508;7.966;2023-04-25T15:04:17;10.50;99.90
6106;DHT22;3083;51.508;7.966;2023-04-25T15:06:44;10.60;99.90
6106;DHT22;3083;51.508;7.966;2023-04-25T15:09:11;10.70;99.90
6106;DHT22;3083;51.508;7.966;2023-04-25T15:11:38;10.90;99.90
6106;DHT22;3083;51.508;7.966;2023-04-25T15:14:06;11.10;99.90
6106;DHT22;3083;51.508;7.966;2023-04-25T15:16:33;11.20;99.90
6106;DHT22;3083;51.508;7.966;2023-04-25T15:19:00;11.40;99.90
6106;DHT22;3083;51.508;7.966;2023-04-25T15:21:30;11.60;99.90
6106;DHT22;3083;51.508;7.966;2023-04-25T15:23:57;11.80;99.90
6106;DHT22;3083;51.508;7.966;2023-04-25T15:26:24;11.90;99.90
6106;DHT22;3083;51.508;7.966;2023-04-25T15:28:51;11.50;99.90
6106;DHT22;3083;51.508;7.966;2023-04-25T15:31:19;11.00;99.90
6106;DHT22;3083;51.508;7.966;2023-04-25T15:33:46;10.40;99.90
6106;DHT22;3083;51.508;7.966;2023-04-25T15:36:13;9.80;99.90
6106;DHT22;3083;51.508;7.966;2023-04-25T15:38:41;9.40;99.90
6106;DHT22;3083;51.508;7.966;2023-04-25T15:41:09;9.10;99.90
6106;DHT22;3083;51.508;7.966;2023-04-25T15:43:36;8.80;99.90
6106;DHT22;3083;51.508;7.966;2023-04-25T15:46:03;8.50;99.90
6106;DHT22;3083;51.508;7.966;2023-04-25T15:48:32;8.30;99.90
6106;DHT22;3083;51.508;7.966;2023-04-25T15:50:59;8.10;99.90
6106;DHT22;3083;51.508;7.966;2023-04-25T15:53:26;7.90;99.90
6106;DHT22;3083;51.508;7.966;2023-04-25T15:55:53;7.80;99.90
6106;DHT22;3083;51.508;7.966;2023-04-25T15:58:20;7.70;99.90
6106;DHT22;3083;51.508;7.966;2023-04-25T16:00:47;7.60;99.90
6106;DHT22;3083;51.508;7.966;2023-04-25T16:03:16;7.60;99.90
6106;DHT22;3083;51.508;7.966;2023-04-25T16:05:44;7.70;99.90
6106;DHT22;3083;51.508;7.966;2023-04-25T16:08:11;7.80;99.90
6106;DHT22;3083;51.508;7.966;2023-04-25T16:10:38;7.80;99.90
6106;DHT22;3083;51.508;7.966;2023-04-25T16:13:05;8.00;99.90
6106;DHT22;3083;51.508;7.966;2023-04-25T16:15:32;8.20;99.90